Time;durP1;ratioP1;P1;durP2;ratioP2;P2;SDS_P1;SDS_P2;PMS_P1;PMS_P2;Temp;Humidity;BMP_temperature;BMP_pressure;BME280_temperature;BME280_humidity;BME280_pressure;Samples;Min_cycle;Max_cycle;Signal;HPM_P1;HPM_P2
2023/11/01 00:00:05;;;;;;;2.90;1.23;;;11.10;99.90;;;;;;4968311;28;20518;-79
2023/11/01 00:02:32;;;;;;;7.20;2.63;;;11.10;99.90;;;;;;5000008;28;20064;-78
2023/11/01 00:04:57;;;;;;;3.42;2.17;;;11.10;99.90;;;;;;4984534;28;20196;-77
2023/11/01 00:07:23;;;;;;;4.07;1.90;;;11.10;99.90;;;;;;4984514;28;20042;-77
2023/11/01 00:09:48;;;;;;;8.27;2.67;;;11.20;99.90;;;;;;4984356;28;20318;-78
2023/11/01 00:12:14;;;;;;;7.95;2.17;;;11.10;99.90;;;;;;5015351;28;20858;-78
2023/11/01 00:14:39;;;;;;;7.30;2.50;;;11.10;99.90;;;;;;5013231;28;20030;-78
2023/11/01 00:17:05;;;;;;;9.00;2.95;;;11.10;99.90;;;;;;4984333;28;20034;-78
2023/11/01 00:19:30;;;;;;;9.77;2.58;;;11.10;99.90;;;;;;4985358;28;20046;-78
2023/11/01 00:21:59;;;;;;;3.38;2.10;;;11.10;99.90;;;;;;5015764;28;21268;-79
2023/11/01 00:24:24;;;;;;;3.97;1.42;;;11.20;99.90;;;;;;4980530;28;20049;-79
2023/11/01 00:26:50;;;;;;;6.18;2.22;;;11.10;99.90;;;;;;5012535;28;20034;-78
2023/11/01 00:29:16;;;;;;;4.88;1.83;;;11.10;99.90;;;;;;5014808;28;20034;-79
2023/11/01 00:31:42;;;;;;;4.78;2.00;;;11.20;99.90;;;;;;4984981;28;20030;-77
2023/11/01 00:34:07;;;;;;;10.13;3.25;;;11.20;99.90;;;;;;5015690;28;20061;-78
2023/11/01 00:36:33;;;;;;;12.48;3.08;;;11.20;99.90;;;;;;4967980;28;20034;-78
2023/11/01 00:38:59;;;;;;;12.95;3.33;;;11.20;99.90;;;;;;4997596;28;20084;-78
2023/11/01 00:41:24;;;;;;;6.82;2.40;;;11.20;99.90;;;;;;4987532;28;20084;-79
2023/11/01 00:43:50;;;;;;;6.88;2.72;;;11.20;99.90;;;;;;4997234;28;20070;-79
2023/11/01 00:46:15;;;;;;;4.57;1.73;;;11.20;99.90;;;;;;4988277;28;20081;-78
2023/11/01 00:48:41;;;;;;;6.82;2.47;;;11.10;99.90;;;;;;4984018;28;20447;-80
2023/11/01 00:51:06;;;;;;;4.15;2.30;;;11.20;99.90;;;;;;4985041;28;20038;-78
2023/11/01 00:53:32;;;;;;;6.57;2.80;;;11.10;99.90;;;;;;4981692;28;20069;-78
2023/11/01 00:55:57;;;;;;;6.53;2.90;;;11.20;99.90;;;;;;4985967;28;20034;-78
2023/11/01 00:58:23;;;;;;;12.63;3.22;;;11.20;99.90;;;;;;4985333;28;20031;-78
2023/11/01 01:00:49;;;;;;;12.95;3.97;;;11.10;99.90;;;;;;4966668;28;20038;-78
2023/11/01 01:03:14;;;;;;;9.20;3.40;;;11.20;99.90;;;;;;4985352;28;20027;-78
2023/11/01 01:05:41;;;;;;;4.22;2.17;;;11.10;99.90;;;;;;4966702;28;20042;-77
2023/11/01 01:08:07;;;;;;;5.10;1.90;;;11.20;99.90;;;;;;4967541;28;20038;-78
2023/11/01 01:10:32;;;;;;;6.93;2.80;;;11.20;99.90;;;;;;4985911;28;20548;-78
2023/11/01 01:12:58;;;;;;;5.65;1.70;;;11.20;99.90;;;;;;4979532;28;20655;-78
2023/11/01 01:15:24;;;;;;;6.10;2.55;;;11.10;99.90;;;;;;5000696;28;20054;-78
2023/11/01 01:17:49;;;;;;;5.18;2.90;;;11.20;99.90;;;;;;4997730;28;20483;-78
2023/11/01 01:20:15;;;;;;;7.70;3.00;;;11.20;99.90;;;;;;4993992;28;20034;-78
2023/11/01 01:22:41;;;;;;;4.57;2.70;;;11.20;99.90;;;;;;4967232;28;20031;-78
2023/11/01 01:25:07;;;;;;;10.40;2.75;;;11.10;99.90;;;;;;4982847;28;20454;-78
2023/11/01 01:27:33;;;;;;;7.15;2.45;;;11.10;99.90;;;;;;4984065;28;20121;-79
2023/11/01 01:29:58;;;;;;;4.57;2.75;;;11.10;99.90;;;;;;4982206;28;20081;-78
2023/11/01 01:32:25;;;;;;;9.70;2.80;;;11.10;99.90;;;;;;4995022;28;20046;-78
2023/11/01 01:34:50;;;;;;;15.15;4.03;;;11.00;99.90;;;;;;4982117;28;20034;-80
2023/11/01 01:37:16;;;;;;;7.25;2.58;;;11.10;99.90;;;;;;4982057;28;20031;-79
2023/11/01 01:39:41;;;;;;;9.38;2.65;;;11.10;99.90;;;;;;4967213;28;20203;-78
2023/11/01 01:42:07;;;;;;;8.60;2.85;;;11.00;99.90;;;;;;4983619;28;20039;-78
2023/11/01 01:44:32;;;;;;;8.38;2.75;;;11.10;99.90;;;;;;4966432;28;20080;-79
2023/11/01 01:46:58;;;;;;;3.72;1.92;;;11.00;99.90;;;;;;4980251;28;20434;-78
2023/11/01 01:49:24;;;;;;;4.80;1.83;;;11.00;99.90;;;;;;4984624;28;20122;-79
2023/11/01 01:51:49;;;;;;;6.43;2.50;;;11.10;99.90;;;;;;4966234;28;20243;-78
2023/11/01 01:54:15;;;;;;;7.88;2.65;;;11.00;99.90;;;;;;4966271;28;20038;-79
2023/11/01 01:56:40;;;;;;;7.57;2.10;;;11.00;99.90;;;;;;4978702;28;20026;-78
2023/11/01 01:59:06;;;;;;;9.50;2.17;;;11.00;99.90;;;;;;4982259;28;20030;-79
2023/11/01 02:01:32;;;;;;;6.82;2.33;;;11.00;99.90;;;;;;4996869;28;20045;-78
2023/11/01 02:03:58;;;;;;;5.43;2.05;;;11.00;99.90;;;;;;4966642;28;20049;-78
2023/11/01 02:06:23;;;;;;;8.35;2.65;;;11.00;99.90;;;;;;4967851;28;20038;-78
2023/11/01 02:08:49;;;;;;;8.18;2.20;;;11.00;99.90;;;;;;4993283;28;20035;-79
2023/11/01 02:11:15;;;;;;;5.72;1.70;;;11.00;99.90;;;;;;4954447;28;20026;-78
2023/11/01 02:13:41;;;;;;;8.35;2.20;;;11.00;99.90;;;;;;4997214;28;20450;-79
2023/11/01 02:16:07;;;;;;;6.55;1.85;;;11.00;99.90;;;;;;4995898;28;20049;-78
2023/11/01 02:18:33;;;;;;;5.88;2.05;;;11.00;99.90;;;;;;4985805;28;20030;-79
2023/11/01 02:20:58;;;;;;;5.95;2.05;;;11.00;99.90;;;;;;4982103;28;20034;-80
2023/11/01 02:23:31;;;;;;;6.63;2.53;;;10.90;99.90;;;;;;4983042;28;20039;-79
2023/11/01 02:25:57;;;;;;;7.93;2.05;;;11.00;99.90;;;;;;4996620;28;20482;-78
2023/11/01 02:28:22;;;;;;;3.20;1.90;;;10.90;99.90;;;;;;4981599;28;20037;-79
2023/11/01 02:30:48;;;;;;;5.80;1.67;;;10.90;99.90;;;;;;4981857;28;20058;-78
2023/11/01 02:33:13;;;;;;;4.65;1.67;;;10.90;99.90;;;;;;4993549;28;20504;-78
2023/11/01 02:35:39;;;;;;;3.80;1.95;;;10.90;99.90;;;;;;4982717;28;20080;-79
2023/11/01 02:38:05;;;;;;;2.78;1.77;;;10.90;99.90;;;;;;4966106;28;20088;-79
2023/11/01 02:40:30;;;;;;;5.80;1.90;;;10.90;99.90;;;;;;4977577;28;20055;-78
2023/11/01 02:42:56;;;;;;;6.90;1.88;;;10.90;99.90;;;;;;4981955;28;20406;-80
2023/11/01 02:45:21;;;;;;;7.93;1.98;;;10.90;99.90;;;;;;4982300;28;20486;-79
2023/11/01 02:47:50;;;;;;;6.53;1.77;;;10.90;99.90;;;;;;4986515;28;20031;-79
2023/11/01 02:50:16;;;;;;;6.43;1.77;;;10.80;99.90;;;;;;4980994;28;20121;-80
2023/11/01 02:52:42;;;;;;;4.05;1.90;;;10.80;99.90;;;;;;4966594;28;20031;-79
2023/11/01 02:55:11;;;;;;;4.40;1.48;;;10.90;99.90;;;;;;4983090;28;20092;-78
2023/11/01 02:57:37;;;;;;;7.00;1.95;;;10.90;99.90;;;;;;4980988;28;20038;-78
2023/11/01 03:00:07;;;;;;;5.45;2.05;;;10.90;99.90;;;;;;4966818;28;20454;-78
2023/11/01 03:02:36;;;;;;;10.15;2.22;;;10.80;99.90;;;;;;4992381;28;20096;-77
2023/11/01 03:05:03;;;;;;;10.30;2.10;;;10.80;99.90;;;;;;4999694;28;20495;-77
2023/11/01 03:07:28;;;;;;;3.72;1.85;;;10.80;99.90;;;;;;4981523;28;20129;-78
2023/11/01 03:09:54;;;;;;;5.63;2.05;;;10.70;99.90;;;;;;4981816;28;20503;-79
2023/11/01 03:12:19;;;;;;;3.72;1.70;;;10.70;99.90;;;;;;4987589;28;20394;-78
2023/11/01 03:14:45;;;;;;;6.78;2.10;;;10.80;99.90;;;;;;4982380;28;20121;-79
2023/11/01 03:17:11;;;;;;;5.05;1.67;;;10.80;99.90;;;;;;4992948;28;20125;-78
2023/11/01 03:19:39;;;;;;;7.80;1.60;;;10.80;99.90;;;;;;4996068;28;20034;-79
2023/11/01 03:22:05;;;;;;;5.75;1.63;;;10.80;99.90;;;;;;4995010;28;20137;-78
2023/11/01 03:24:31;;;;;;;5.80;1.77;;;10.80;99.90;;;;;;4983127;28;20566;-78
2023/11/01 03:26:58;;;;;;;5.68;1.52;;;10.80;99.90;;;;;;4981596;28;20045;-78
2023/11/01 03:29:26;;;;;;;4.05;1.77;;;10.80;99.90;;;;;;4981005;28;20060;-77
2023/11/01 03:31:52;;;;;;;3.20;1.50;;;10.80;99.90;;;;;;4980320;28;20038;-79
2023/11/01 03:34:17;;;;;;;6.68;2.60;;;10.80;99.90;;;;;;4978615;28;20034;-78
2023/11/01 03:36:43;;;;;;;4.45;1.40;;;10.80;99.90;;;;;;4980354;28;20093;-78
2023/11/01 03:39:09;;;;;;;4.03;1.80;;;10.80;99.90;;;;;;4994410;28;20041;-77
2023/11/01 03:41:41;;;;;;;7.95;1.60;;;10.80;99.90;;;;;;5016601;28;20084;-78
2023/11/01 03:44:07;;;;;;;4.20;1.92;;;10.80;99.90;;;;;;4983754;28;20570;-79
2023/11/01 03:46:32;;;;;;;6.72;1.80;;;10.80;99.90;;;;;;4987871;28;20045;-79
2023/11/01 03:48:58;;;;;;;5.47;1.80;;;10.80;99.90;;;;;;4969285;28;20114;-79
2023/11/01 03:51:24;;;;;;;4.55;1.60;;;10.80;99.90;;;;;;4981143;28;20519;-77
2023/11/01 03:53:49;;;;;;;10.63;1.77;;;10.80;99.90;;;;;;5001454;28;20129;-79
2023/11/01 03:56:15;;;;;;;11.25;1.95;;;10.80;99.90;;;;;;4983497;28;20402;-78
2023/11/01 03:58:40;;;;;;;3.55;1.58;;;10.80;99.90;;;;;;4998572;28;20041;-77
2023/11/01 04:01:06;;;;;;;4.10;1.30;;;10.80;99.90;;;;;;4982375;28;20410;-77
2023/11/01 04:03:31;;;;;;;5.10;1.45;;;10.80;99.90;;;;;;4967760;28;20027;-77
2023/11/01 04:05:57;;;;;;;6.13;1.60;;;10.80;99.90;;;;;;4984830;28;20146;-77
2023/11/01 04:08:23;;;;;;;2.75;1.60;;;10.80;99.90;;;;;;5001838;28;20030;-77
2023/11/01 04:10:49;;;;;;;4.15;2.08;;;10.80;99.90;;;;;;4984462;28;20034;-78
2023/11/01 04:13:14;;;;;;;4.45;1.55;;;10.90;99.90;;;;;;4964634;28;20076;-78
2023/11/01 04:15:40;;;;;;;6.72;1.45;;;10.90;99.90;;;;;;4984098;28;20034;-78
2023/11/01 04:18:05;;;;;;;4.10;1.33;;;10.90;99.90;;;;;;4984255;28;20495;-78
2023/11/01 04:20:31;;;;;;;3.85;1.27;;;10.90;99.90;;;;;;4982985;28;20038;-76
2023/11/01 04:22:57;;;;;;;9.70;1.80;;;10.90;99.90;;;;;;4968031;28;20036;-77
2023/11/01 04:25:22;;;;;;;3.75;1.17;;;10.90;99.90;;;;;;4981922;28;20116;-78
2023/11/01 04:27:48;;;;;;;3.08;1.00;;;10.90;99.90;;;;;;4984200;28;20027;-77
2023/11/01 04:30:14;;;;;;;3.83;0.80;;;10.90;99.90;;;;;;4982883;28;20129;-78
2023/11/01 04:32:40;;;;;;;0.80;0.40;;;11.00;99.90;;;;;;5015988;28;20070;-77
2023/11/01 04:35:09;;;;;;;2.20;0.68;;;11.00;99.90;;;;;;4982544;28;20041;-77
2023/11/01 04:37:41;;;;;;;3.83;0.70;;;11.00;99.90;;;;;;4969264;28;20034;-78
2023/11/01 04:40:07;;;;;;;4.05;1.13;;;11.00;99.90;;;;;;4983832;28;20735;-78
2023/11/01 04:42:33;;;;;;;4.07;0.88;;;11.00;99.90;;;;;;4967625;28;20034;-79
2023/11/01 04:44:58;;;;;;;2.90;1.05;;;11.00;99.90;;;;;;4983719;28;20525;-78
2023/11/01 04:47:24;;;;;;;1.60;0.70;;;11.00;99.90;;;;;;4996994;28;20540;-78
2023/11/01 04:49:50;;;;;;;0.68;0.57;;;11.10;99.90;;;;;;4966361;28;20601;-78
2023/11/01 04:52:16;;;;;;;5.13;0.90;;;11.10;99.90;;;;;;4982321;28;20446;-78
2023/11/01 04:54:41;;;;;;;2.20;0.90;;;11.10;99.90;;;;;;4991211;28;20034;-78
2023/11/01 04:57:07;;;;;;;2.55;0.75;;;11.10;99.90;;;;;;4982386;28;20026;-78
2023/11/01 04:59:33;;;;;;;1.40;0.65;;;11.10;99.90;;;;;;4981364;28;20129;-79
2023/11/01 05:01:58;;;;;;;2.67;0.88;;;11.10;99.90;;;;;;4983612;28;20057;-78
2023/11/01 05:04:24;;;;;;;0.90;0.65;;;11.20;99.90;;;;;;4993725;28;20038;-77
2023/11/01 05:06:51;;;;;;;2.15;0.90;;;11.20;99.90;;;;;;4967524;28;20181;-77
2023/11/01 05:09:17;;;;;;;3.17;0.70;;;11.20;99.90;;;;;;4980476;28;20042;-77
2023/11/01 05:11:45;;;;;;;2.20;1.05;;;11.20;99.90;;;;;;4981517;28;20077;-77
2023/11/01 05:14:11;;;;;;;2.08;0.73;;;11.20;99.90;;;;;;4995284;28;20045;-77
2023/11/01 05:16:36;;;;;;;3.70;0.70;;;11.30;99.90;;;;;;4996684;28;20034;-78
2023/11/01 05:19:02;;;;;;;6.93;0.80;;;11.30;99.90;;;;;;4966088;28;20081;-78
2023/11/01 05:21:27;;;;;;;3.83;0.75;;;11.30;99.90;;;;;;4995290;28;20030;-78
2023/11/01 05:23:53;;;;;;;1.35;0.77;;;11.30;99.90;;;;;;4966086;28;20038;-78
2023/11/01 05:26:18;;;;;;;0.85;0.77;;;11.30;99.90;;;;;;4983444;28;20049;-78
2023/11/01 05:28:44;;;;;;;3.83;0.93;;;11.30;99.90;;;;;;4980180;28;20018;-78
2023/11/01 05:31:10;;;;;;;10.10;1.35;;;11.20;99.90;;;;;;4967117;28;20551;-78
2023/11/01 05:33:35;;;;;;;0.95;0.68;;;11.30;99.90;;;;;;4995938;28;20034;-77
2023/11/01 05:36:06;;;;;;;2.92;0.70;;;11.30;99.90;;;;;;4995030;28;20450;-78
2023/11/01 05:38:32;;;;;;;2.33;0.70;;;11.30;99.90;;;;;;4981133;28;20038;-77
2023/11/01 05:40:58;;;;;;;0.98;0.55;;;11.30;99.90;;;;;;4982143;28;20581;-78
2023/11/01 05:43:23;;;;;;;5.22;1.00;;;11.30;99.90;;;;;;4979243;28;20038;-78
2023/11/01 05:45:49;;;;;;;2.55;0.50;;;11.30;99.90;;;;;;4967298;28;20038;-78
2023/11/01 05:48:14;;;;;;;4.43;0.85;;;11.30;99.90;;;;;;4995105;28;20039;-78
2023/11/01 05:50:42;;;;;;;1.75;1.00;;;11.40;99.90;;;;;;4965680;28;20822;-77
2023/11/01 05:53:10;;;;;;;3.08;1.00;;;11.40;99.90;;;;;;4981611;28;20030;-78
2023/11/01 05:55:38;;;;;;;1.80;0.82;;;11.40;99.90;;;;;;4993976;28;20525;-77
2023/11/01 05:58:07;;;;;;;4.88;0.60;;;11.40;99.90;;;;;;4997856;28;20034;-78
2023/11/01 06:00:36;;;;;;;1.90;0.55;;;11.40;99.90;;;;;;4982104;28;20097;-78
2023/11/01 06:03:01;;;;;;;1.80;1.35;;;11.40;99.90;;;;;;4994611;28;20536;-77
2023/11/01 06:05:27;;;;;;;6.28;1.70;;;11.40;99.90;;;;;;4994804;28;20050;-78
2023/11/01 06:07:53;;;;;;;4.00;1.33;;;11.40;99.90;;;;;;4966964;28;20023;-78
2023/11/01 06:10:18;;;;;;;1.20;0.68;;;11.40;99.90;;;;;;4966464;28;20062;-78
2023/11/01 06:12:44;;;;;;;2.55;1.15;;;11.40;99.90;;;;;;4966503;28;20422;-79
2023/11/01 06:15:10;;;;;;;7.03;1.40;;;11.40;99.90;;;;;;4982705;28;20057;-78
2023/11/01 06:17:38;;;;;;;3.22;1.30;;;11.40;99.90;;;;;;5001747;28;20038;-78
2023/11/01 06:20:06;;;;;;;4.00;0.73;;;11.40;99.90;;;;;;5014993;28;20050;-77
2023/11/01 06:22:32;;;;;;;5.70;1.38;;;11.40;99.90;;;;;;4995452;28;20054;-77
2023/11/01 06:24:58;;;;;;;3.97;1.52;;;11.40;99.90;;;;;;5013189;28;20046;-77
2023/11/01 06:27:23;;;;;;;4.50;1.13;;;11.50;99.90;;;;;;4994192;28;20399;-77
2023/11/01 06:29:49;;;;;;;1.90;0.82;;;11.40;99.90;;;;;;4982659;28;20040;-78
2023/11/01 06:32:14;;;;;;;5.38;1.23;;;11.40;99.90;;;;;;4982345;28;20117;-77
2023/11/01 06:34:40;;;;;;;6.57;1.30;;;11.40;99.90;;;;;;5008023;28;20049;-77
2023/11/01 06:37:05;;;;;;;3.10;1.15;;;11.50;99.90;;;;;;4994275;28;20085;-77
2023/11/01 06:39:31;;;;;;;4.35;0.90;;;11.50;99.90;;;;;;4980716;28;20537;-78
2023/11/01 06:41:57;;;;;;;3.42;0.90;;;11.50;99.90;;;;;;5012626;28;20096;-78
2023/11/01 06:44:23;;;;;;;4.22;1.00;;;11.50;99.90;;;;;;4982281;28;20035;-77
2023/11/01 06:46:49;;;;;;;3.90;1.10;;;11.50;99.90;;;;;;4967154;28;20041;-79
2023/11/01 06:49:16;;;;;;;3.92;1.13;;;11.50;99.90;;;;;;4992607;28;20406;-78
2023/11/01 06:51:41;;;;;;;6.10;1.52;;;11.50;99.90;;;;;;4980416;28;20890;-78
2023/11/01 06:54:07;;;;;;;7.07;1.05;;;11.50;99.90;;;;;;4984682;28;20113;-79
2023/11/01 06:56:32;;;;;;;4.97;1.15;;;11.50;99.90;;;;;;4981896;28;20110;-78
2023/11/01 06:58:58;;;;;;;3.17;1.10;;;11.50;99.90;;;;;;4966836;28;20174;-78
2023/11/01 07:01:23;;;;;;;2.47;0.90;;;11.50;99.90;;;;;;4982631;28;20035;-79
2023/11/01 07:03:50;;;;;;;7.55;1.70;;;11.50;99.90;;;;;;4997795;28;20035;-79
2023/11/01 07:06:15;;;;;;;6.03;1.42;;;11.60;99.90;;;;;;4980880;28;20057;-78
2023/11/01 07:08:42;;;;;;;4.30;1.25;;;11.60;99.90;;;;;;4991644;28;20069;-79
2023/11/01 07:11:09;;;;;;;4.18;1.33;;;11.60;99.90;;;;;;4993889;28;20501;-78
2023/11/01 07:13:35;;;;;;;13.77;1.58;;;11.60;99.90;;;;;;4965991;28;20031;-78
2023/11/01 07:16:01;;;;;;;13.02;1.80;;;11.60;99.90;;;;;;4970000;28;20129;-78
2023/11/01 07:18:26;;;;;;;7.60;1.88;;;11.60;99.90;;;;;;4978147;28;20030;-78
2023/11/01 07:20:52;;;;;;;8.05;1.98;;;11.60;99.90;;;;;;4969646;28;20629;-78
2023/11/01 07:23:30;;;;;;;3.47;1.52;;;11.60;99.90;;;;;;4984596;28;20109;-78
2023/11/01 07:25:55;;;;;;;6.85;1.30;;;11.60;99.90;;;;;;4970875;28;20038;-78
2023/11/01 07:28:21;;;;;;;6.82;1.35;;;11.70;99.90;;;;;;4988417;28;20050;-79
2023/11/01 07:30:46;;;;;;;5.80;1.65;;;11.70;99.90;;;;;;4987686;28;20379;-77
2023/11/01 07:33:12;;;;;;;5.55;1.20;;;11.70;99.90;;;;;;4985899;28;20145;-78
2023/11/01 07:35:38;;;;;;;9.07;2.00;;;11.70;99.90;;;;;;4988729;28;20294;-78
2023/11/01 07:38:04;;;;;;;4.78;1.55;;;11.80;99.90;;;;;;4970140;28;20463;-78
2023/11/01 07:40:29;;;;;;;9.27;1.80;;;11.70;99.90;;;;;;4970012;28;20122;-78
2023/11/01 07:42:56;;;;;;;11.20;2.05;;;11.80;99.90;;;;;;4969724;28;20038;-78
2023/11/01 07:45:22;;;;;;;6.05;1.55;;;11.80;99.90;;;;;;4999933;28;20060;-79
2023/11/01 07:47:47;;;;;;;6.50;1.42;;;11.90;99.90;;;;;;4999137;28;20487;-78
2023/11/01 07:50:13;;;;;;;6.10;1.85;;;11.90;99.90;;;;;;4981927;28;20383;-79
2023/11/01 07:52:39;;;;;;;9.15;1.45;;;11.90;99.90;;;;;;4967998;28;20030;-78
2023/11/01 07:55:05;;;;;;;5.30;0.98;;;12.00;99.90;;;;;;4969164;28;20046;-77
2023/11/01 07:57:32;;;;;;;4.55;1.10;;;12.10;99.90;;;;;;4998074;28;20038;-78
2023/11/01 07:59:57;;;;;;;8.43;1.27;;;12.10;99.90;;;;;;4968907;28;20104;-78
2023/11/01 08:02:23;;;;;;;7.45;1.08;;;12.20;99.90;;;;;;4998100;28;20770;-77
2023/11/01 08:04:48;;;;;;;8.20;1.50;;;12.30;99.90;;;;;;4986438;28;20050;-79
2023/11/01 08:07:14;;;;;;;2.95;0.98;;;12.30;99.90;;;;;;5004442;28;20077;-78
2023/11/01 08:09:40;;;;;;;4.70;1.20;;;12.40;99.90;;;;;;4998179;28;20114;-78
2023/11/01 08:12:06;;;;;;;5.65;1.10;;;12.50;99.90;;;;;;4967951;28;20038;-79
2023/11/01 08:14:32;;;;;;;6.38;1.42;;;12.50;99.90;;;;;;4985295;28;20487;-79
2023/11/01 08:16:57;;;;;;;8.13;1.73;;;12.60;99.90;;;;;;4968552;28;20089;-78
2023/11/01 08:19:23;;;;;;;7.32;1.40;;;12.60;99.90;;;;;;4984305;28;20026;-78
2023/11/01 08:21:48;;;;;;;5.80;1.63;;;12.70;99.90;;;;;;4965805;28;20470;-79
2023/11/01 08:24:14;;;;;;;9.32;1.15;;;12.70;99.90;;;;;;4980722;28;20111;-76
2023/11/01 08:26:40;;;;;;;7.47;1.23;;;12.80;99.90;;;;;;4985374;28;20038;-78
2023/11/01 08:29:05;;;;;;;4.80;2.38;;;12.80;99.90;;;;;;4987887;28;20058;-79
2023/11/01 08:31:31;;;;;;;9.25;1.70;;;12.80;99.90;;;;;;4985669;28;20085;-78
2023/11/01 08:33:57;;;;;;;5.85;1.20;;;12.90;99.90;;;;;;4999616;28;20089;-78
2023/11/01 08:36:22;;;;;;;7.63;2.22;;;12.90;99.90;;;;;;4999266;28;20380;-78
2023/11/01 08:38:48;;;;;;;6.95;1.40;;;12.90;99.90;;;;;;4985929;28;20037;-79
2023/11/01 08:41:13;;;;;;;5.75;1.20;;;13.00;99.90;;;;;;4987872;28;20430;-79
2023/11/01 08:43:41;;;;;;;7.53;1.80;;;13.00;99.90;;;;;;4986250;28;20383;-78
2023/11/01 08:46:06;;;;;;;7.15;1.75;;;13.00;99.90;;;;;;5014370;28;20085;-78
2023/11/01 08:48:32;;;;;;;6.15;1.67;;;13.10;99.90;;;;;;4969625;28;20459;-78
2023/11/01 08:50:57;;;;;;;5.00;1.05;;;13.20;99.90;;;;;;4984693;28;20045;-80
2023/11/01 08:53:23;;;;;;;3.75;1.10;;;13.30;99.90;;;;;;4998711;28;20061;-80
2023/11/01 08:55:49;;;;;;;3.20;1.10;;;13.30;99.90;;;;;;4984748;28;20566;-79
2023/11/01 08:58:15;;;;;;;5.72;1.30;;;13.50;99.90;;;;;;5001871;28;20050;-78
2023/11/01 09:00:41;;;;;;;6.32;1.27;;;13.50;99.90;;;;;;4980814;28;20061;-79
2023/11/01 09:03:06;;;;;;;6.70;1.10;;;13.60;99.90;;;;;;4979783;28;20491;-78
2023/11/01 09:05:32;;;;;;;5.65;1.25;;;13.70;99.90;;;;;;4982722;28;20406;-79
2023/11/01 09:07:57;;;;;;;3.40;1.05;;;13.80;99.90;;;;;;5000953;28;20471;-79
2023/11/01 09:10:23;;;;;;;5.55;0.93;;;13.90;99.90;;;;;;4981480;28;20042;-78
2023/11/01 09:12:48;;;;;;;4.28;0.85;;;14.00;99.90;;;;;;4995175;28;22837;-79
2023/11/01 09:15:14;;;;;;;6.43;0.75;;;14.00;99.90;;;;;;4985900;28;20030;-78
2023/11/01 09:17:40;;;;;;;5.65;0.88;;;14.00;99.90;;;;;;4982153;28;20507;-78
2023/11/01 09:20:06;;;;;;;8.73;1.13;;;14.10;99.90;;;;;;4984781;28;20519;-79
2023/11/01 09:22:32;;;;;;;8.35;1.38;;;14.10;99.90;;;;;;5001070;28;20072;-78
2023/11/01 09:24:58;;;;;;;3.95;0.93;;;14.10;99.90;;;;;;4990046;28;20136;-79
2023/11/01 09:27:26;;;;;;;5.43;0.80;;;14.10;99.90;;;;;;4984179;28;20117;-79
2023/11/01 09:29:51;;;;;;;2.80;0.80;;;14.10;99.90;;;;;;5000732;28;20501;-78
2023/11/01 09:32:17;;;;;;;4.60;1.30;;;14.10;99.90;;;;;;4985713;28;20034;-77
2023/11/01 09:34:43;;;;;;;5.22;1.10;;;14.20;99.90;;;;;;4968270;28;20474;-78
2023/11/01 09:37:09;;;;;;;2.75;0.80;;;14.10;99.90;;;;;;4983686;28;20506;-79
2023/11/01 09:39:34;;;;;;;6.45;1.23;;;14.20;99.90;;;;;;4981328;28;20058;-78
2023/11/01 09:42:04;;;;;;;9.02;1.48;;;14.20;99.90;;;;;;4997116;28;20396;-78
2023/11/01 09:44:29;;;;;;;3.20;0.98;;;14.30;99.90;;;;;;4983436;28;20042;-77
2023/11/01 09:46:55;;;;;;;1.77;0.70;;;14.30;99.90;;;;;;4983306;28;20487;-78
2023/11/01 09:49:22;;;;;;;4.43;0.93;;;14.30;99.90;;;;;;4997552;28;20030;-79
2023/11/01 09:51:47;;;;;;;6.38;1.10;;;14.30;99.90;;;;;;4968019;28;20033;-78
2023/11/01 09:54:13;;;;;;;6.72;1.10;;;14.30;99.90;;;;;;4982831;28;20027;-79
2023/11/01 09:56:42;;;;;;;5.30;1.10;;;14.40;99.90;;;;;;4967666;28;20538;-80
2023/11/01 09:59:08;;;;;;;4.32;0.93;;;14.50;99.90;;;;;;4982484;28;20049;-78
2023/11/01 10:01:35;;;;;;;1.95;0.65;;;14.60;99.90;;;;;;4983852;28;20038;-78
2023/11/01 10:04:03;;;;;;;6.95;1.08;;;14.60;99.90;;;;;;4997774;28;20983;-78
2023/11/01 10:06:28;;;;;;;2.63;0.85;;;14.60;99.90;;;;;;4980928;28;20023;-78
2023/11/01 10:08:55;;;;;;;2.22;0.65;;;14.60;99.90;;;;;;4996747;28;20070;-78
2023/11/01 10:11:24;;;;;;;2.97;0.85;;;14.70;99.90;;;;;;4984836;28;20069;-78
2023/11/01 10:13:50;;;;;;;4.22;0.90;;;14.80;99.90;;;;;;4967661;28;20041;-79
2023/11/01 10:16:15;;;;;;;8.07;1.60;;;14.70;99.90;;;;;;4968761;28;20026;-78
2023/11/01 10:18:41;;;;;;;1.95;0.32;;;14.80;99.90;;;;;;4981097;28;20041;-78
2023/11/01 10:21:08;;;;;;;4.00;0.82;;;14.70;99.90;;;;;;4967369;28;20030;-78
2023/11/01 10:23:33;;;;;;;7.03;1.05;;;14.80;99.90;;;;;;4997549;28;20054;-78
2023/11/01 10:25:59;;;;;;;3.28;0.80;;;14.80;99.90;;;;;;5015670;28;20117;-78
2023/11/01 10:28:24;;;;;;;4.15;1.10;;;14.80;99.90;;;;;;4983749;28;20038;-79
2023/11/01 10:30:50;;;;;;;11.32;1.02;;;14.80;99.90;;;;;;5011010;28;20380;-78
2023/11/01 10:33:18;;;;;;;1.48;0.70;;;14.90;99.90;;;;;;4981690;28;20030;-77
2023/11/01 10:35:57;;;;;;;4.30;0.85;;;14.90;99.90;;;;;;4996678;28;20058;-77
2023/11/01 10:38:22;;;;;;;4.95;1.10;;;15.00;99.90;;;;;;4994029;28;20037;-78
2023/11/01 10:40:48;;;;;;;7.40;1.42;;;15.30;99.90;;;;;;4983152;28;20030;-78
2023/11/01 10:43:13;;;;;;;3.15;0.80;;;15.40;99.90;;;;;;4982469;28;20117;-78
2023/11/01 10:45:39;;;;;;;5.80;1.00;;;15.50;99.90;;;;;;4993511;28;20069;-78
2023/11/01 10:48:05;;;;;;;6.65;0.90;;;15.60;99.90;;;;;;4992242;28;20038;-78
2023/11/01 10:50:33;;;;;;;2.45;0.80;;;15.70;99.90;;;;;;4998961;28;20479;-77
2023/11/01 10:52:58;;;;;;;3.38;0.55;;;15.90;99.90;;;;;;5014253;28;20039;-77
2023/11/01 10:55:24;;;;;;;4.40;0.77;;;15.90;99.90;;;;;;4973213;28;20037;-77
2023/11/01 10:57:51;;;;;;;4.78;0.80;;;16.00;99.90;;;;;;4987733;28;20141;-78
2023/11/01 11:00:49;;;;;;;6.38;0.82;;;16.00;99.90;;;;;;4971777;28;20065;-78
2023/11/01 11:03:23;;;;;;;2.97;0.80;;;16.00;99.90;;;;;;4971100;28;20050;-77
2023/11/01 11:05:49;;;;;;;1.45;0.70;;;16.20;99.90;;;;;;5000583;28;20445;-77
2023/11/01 11:08:14;;;;;;;4.68;0.90;;;16.40;99.90;;;;;;5018425;28;20030;-78
2023/11/01 11:10:42;;;;;;;2.80;1.15;;;16.40;99.90;;;;;;4988615;28;20109;-77
2023/11/01 11:13:12;;;;;;;1.77;0.80;;;16.40;99.90;;;;;;4984272;28;20034;-77
2023/11/01 11:15:59;;;;;;;2.58;0.70;;;16.60;99.90;;;;;;4988288;28;20114;-76
2023/11/01 11:18:27;;;;;;;4.57;0.82;;;16.60;99.90;;;;;;4983124;28;20038;-77
2023/11/01 11:20:55;;;;;;;8.45;1.60;;;16.80;99.90;;;;;;4952948;28;20125;-78
2023/11/01 11:23:31;;;;;;;3.42;0.65;;;16.90;99.90;;;;;;4999760;28;20061;-76
2023/11/01 11:26:01;;;;;;;4.45;0.98;;;17.00;99.90;;;;;;4968876;28;20034;-78
2023/11/01 11:28:37;;;;;;;5.20;1.05;;;17.10;99.90;;;;;;5001283;28;20434;-78
2023/11/01 11:31:16;;;;;;;3.05;0.82;;;17.10;99.90;;;;;;4986243;28;20453;-79
2023/11/01 11:33:44;;;;;;;6.50;1.45;;;17.20;99.90;;;;;;4995443;28;20376;-80
2023/11/01 11:36:20;;;;;;;4.72;0.80;;;17.10;99.90;;;;;;4985787;28;20022;-77
2023/11/01 11:38:55;;;;;;;1.77;0.52;;;17.30;99.90;;;;;;5002670;28;20042;-78
2023/11/01 11:41:27;;;;;;;4.83;1.50;;;17.20;99.90;;;;;;4983724;28;20032;-76
2023/11/01 11:44:08;;;;;;;4.82;1.23;;;17.20;99.90;;;;;;4998105;28;20386;-77
2023/11/01 11:46:49;;;;;;;3.97;1.00;;;17.10;99.90;;;;;;4986162;28;20109;-77
2023/11/01 11:49:37;;;;;;;2.60;0.85;;;17.00;99.90;;;;;;5012373;28;20700;-76
2023/11/01 11:52:09;;;;;;;4.38;0.77;;;17.20;99.90;;;;;;4983430;28;20111;-77
2023/11/01 11:54:34;;;;;;;7.15;1.08;;;17.40;99.90;;;;;;4983665;28;20122;-77
2023/11/01 11:57:16;;;;;;;9.07;2.03;;;17.40;99.90;;;;;;4983925;28;20117;-77
2023/11/01 11:59:42;;;;;;;4.07;0.52;;;17.50;99.90;;;;;;4968260;28;20027;-77
2023/11/01 12:02:15;;;;;;;6.40;1.60;;;17.50;99.90;;;;;;4998088;28;20414;-77
2023/11/01 12:04:41;;;;;;;4.43;1.05;;;17.60;99.90;;;;;;4980293;28;20046;-77
2023/11/01 12:07:07;;;;;;;3.30;0.77;;;17.60;99.90;;;;;;4984184;28;20391;-77
2023/11/01 12:09:33;;;;;;;2.55;0.90;;;17.60;99.90;;;;;;4990074;28;20096;-76
2023/11/01 12:12:04;;;;;;;8.15;1.38;;;17.90;99.90;;;;;;4982823;28;20651;-78
2023/11/01 12:14:30;;;;;;;5.78;0.60;;;17.90;99.90;;;;;;4969681;28;20505;-77
2023/11/01 12:16:59;;;;;;;8.10;1.17;;;18.00;99.90;;;;;;4968601;28;20038;-77
2023/11/01 12:19:25;;;;;;;6.55;1.08;;;18.10;99.90;;;;;;4997034;28;20568;-78
2023/11/01 12:21:54;;;;;;;3.95;0.90;;;18.20;99.90;;;;;;4967662;28;20034;-76
2023/11/01 12:24:21;;;;;;;2.00;0.70;;;18.30;99.90;;;;;;4996288;28;20454;-76
2023/11/01 12:27:03;;;;;;;5.80;0.88;;;18.30;99.90;;;;;;4993701;28;20539;-77
2023/11/01 12:29:45;;;;;;;2.97;0.75;;;18.40;99.90;;;;;;4995886;28;20066;-77
2023/11/01 12:32:15;;;;;;;9.35;1.50;;;18.40;99.90;;;;;;4983016;28;20041;-77
2023/11/01 12:34:50;;;;;;;6.90;1.40;;;18.20;99.90;;;;;;4982051;28;20035;-77
2023/11/01 12:37:16;;;;;;;5.85;0.77;;;18.20;99.90;;;;;;4998486;28;20069;-77
2023/11/01 12:40:00;;;;;;;3.30;1.17;;;18.20;99.90;;;;;;4996831;28;20101;-77
2023/11/01 12:42:27;;;;;;;6.35;0.98;;;18.00;99.90;;;;;;4983902;28;20038;-78